Terminal Aerodrome Forecast
Issued by NWS

Home | Current Version | Previous Version | Text Only | Print | Product List | Glossary On
Versions: 1 2 3 4 5 6 7 8 9 10 11 12 13 14 15 16 17 18 19 20 21 22 23 24 25 26 27 28 29 30 31
000
FTUS46 KSEW 250500
TAFSEA
TAF
KSEA 250530Z 2506/2612 13003KT P6SM SCT027 OVC070
     FM250900 19006KT P6SM VCSH SCT022 OVC035
      TEMPO 2510/2514 -SHRA BKN022 OVC030
     FM260000 VRB03KT P6SM BKN050
     FM260900 14005KT P6SM OVC015=

USA.gov is the U.S. government's official web portal to all federal, state and local government web resources and services.